Araxos, Greece

9:25 PM EET on February 13, 2016 (GMT +0200)
Araxos Air Base | | Change Station
CLOSE
Current Station
Airport
Location: Araxos,
Elevation: 49 ft
Nearby Weather Stations

Elev 49 ft 38.15 °N, 21.43 °E | Updated 35 minutes ago

Mostly Cloudy
Mostly Cloudy
61 °F
Feels Like 61 °F
N
12
Wind Variable Wind from South

Today
High -- | Low -- °F
--% Chance of Precip.
Yesterday
High -- | Low -- °F
Precip. -- in
Pressure 29.80 in
Visibility 6.2 miles
Clouds Scattered Clouds 3000 ft
Mostly Cloudy 9000 ft
Dew Point 57 °F
Humidity 88%
Rainfall 0.00 in
Snow Depth Not available.
7:27 AM 6:09 PM
Waxing Crescent, 33% visible
METAR LGRX 131850Z 19010KT 9999 SCT030 BKN090 16/14 Q1009 BLU
Pressure 29.80 in
Visibility 6.2 miles
Clouds Scattered Clouds 3000 ft
Mostly Cloudy 9000 ft
Dew Point 57 °F
Humidity 88%
Rainfall 0.00 in
Snow Depth Not available.
7:27 AM 6:09 PM
Waxing Crescent, 33% visible
METAR LGRX 131850Z 19010KT 9999 SCT030 BKN090 16/14 Q1009 BLU

10-Day Weather Forecast

Almanac

Astronomy

Feb. 13, 2016 Rise Set
Actual Time
Civil Twilight
Nautical Twilight
Astronomical Twilight
Moon
Length of Visible Light
Length of Day
Tomorrow will be .
, % of the Moon is Illuminated

Today's Extremes

Country Highs Country Lows

Community

WunderPhotos

Upload Photos

1,892,642 photos uploaded!

WunderBlog® & News

Nearby

Air Quality

  Air Quality AQ Index Pollutant
Not available.

Snow Depth

Station Depth Elevation

Earthquake Activity

City Distance Mag. Time & Date
Minimum magnitude displayed is 2.5.

Coastal Water Temperatures

Place Temperature

Stations

Nearby Weather Stations

Station Location Temp. Windchill Dew Point Humidity Wind Precip. Elev Updated Type